Time;durP1;ratioP1;P1;durP2;ratioP2;P2;SDS_P1;SDS_P2;PMS_P1;PMS_P2;Temp;Humidity;BMP_temperature;BMP_pressure;BME280_temperature;BME280_humidity;BME280_pressure;Samples;Min_cycle;Max_cycle;Signal;HPM_P1;HPM_P2
2021/04/25 00:00:40;;;;;;;16.97;12.03;;;;;;;;;;5056912;28;20384;-65
2021/04/25 00:03:05;;;;;;;18.10;12.17;;;;;;;;;;5060935;28;20036;-65
2021/04/25 00:05:30;;;;;;;17.33;11.73;;;;;;;;;;5051668;28;20021;-66
2021/04/25 00:07:56;;;;;;;19.13;12.87;;;;;;;;;;5051215;28;20078;-65
2021/04/25 00:10:21;;;;;;;18.37;12.77;;;;;;;;;;5050710;28;20020;-65
2021/04/25 00:12:46;;;;;;;19.07;12.50;;;;;;;;;;5071318;28;20024;-66
2021/04/25 00:15:16;;;;;;;18.93;12.90;;;;;;;;;;5057859;28;20021;-64
2021/04/25 00:17:42;;;;;;;20.53;13.57;;;;;;;;;;5052177;28;20060;-65
2021/04/25 00:20:08;;;;;;;16.33;12.23;;;;;;;;;;5048083;28;20025;-66
2021/04/25 00:22:33;;;;;;;19.50;12.90;;;;;;;;;;5053935;28;20495;-66
2021/04/25 00:24:59;;;;;;;14.97;11.90;;;;;;;;;;5059432;28;20043;-65
2021/04/25 00:27:24;;;;;;;17.27;11.93;;;;;;;;;;5068719;28;20078;-65
2021/04/25 00:29:50;;;;;;;16.73;11.97;;;;;;;;;;5057568;28;20012;-65
2021/04/25 00:32:15;;;;;;;15.20;11.43;;;;;;;;;;5066776;28;20020;-65
2021/04/25 00:34:40;;;;;;;17.17;11.23;;;;;;;;;;5062134;28;20062;-65
2021/04/25 00:37:05;;;;;;;16.33;11.60;;;;;;;;;;5056449;28;20016;-65
2021/04/25 00:39:30;;;;;;;14.53;10.90;;;;;;;;;;5048413;28;20139;-65
2021/04/25 00:41:56;;;;;;;17.80;11.80;;;;;;;;;;5070630;28;20032;-65
2021/04/25 00:44:21;;;;;;;18.80;12.70;;;;;;;;;;5057349;28;20025;-65
2021/04/25 00:46:46;;;;;;;17.37;11.87;;;;;;;;;;5060680;28;20071;-65
2021/04/25 00:49:11;;;;;;;19.27;11.93;;;;;;;;;;5047669;28;20025;-65
2021/04/25 00:51:37;;;;;;;14.57;11.23;;;;;;;;;;5065392;28;20017;-65
2021/04/25 00:54:02;;;;;;;17.13;12.43;;;;;;;;;;5072195;28;20023;-66
2021/04/25 00:56:28;;;;;;;18.57;12.70;;;;;;;;;;5071032;28;20020;-65
2021/04/25 00:58:53;;;;;;;17.33;12.23;;;;;;;;;;5054159;28;20556;-66
2021/04/25 01:01:18;;;;;;;17.17;12.10;;;;;;;;;;5058448;28;20016;-65
2021/04/25 01:03:44;;;;;;;18.80;12.27;;;;;;;;;;5064360;28;20021;-65
2021/04/25 01:06:09;;;;;;;18.00;11.50;;;;;;;;;;5061586;28;20107;-66
2021/04/25 01:08:34;;;;;;;17.83;11.13;;;;;;;;;;5057029;28;20021;-65
2021/04/25 01:11:00;;;;;;;19.17;11.70;;;;;;;;;;5051455;28;20027;-65
2021/04/25 01:13:25;;;;;;;16.47;11.87;;;;;;;;;;5057187;28;20460;-65
2021/04/25 01:15:51;;;;;;;16.33;12.57;;;;;;;;;;5050751;28;20021;-65
2021/04/25 01:18:16;;;;;;;17.90;11.93;;;;;;;;;;5051410;28;20085;-65
2021/04/25 01:20:41;;;;;;;17.63;12.00;;;;;;;;;;5052669;28;20048;-65
2021/04/25 01:23:06;;;;;;;15.17;11.87;;;;;;;;;;5066621;28;20024;-65
2021/04/25 01:25:31;;;;;;;18.53;12.27;;;;;;;;;;5041553;28;20021;-64
2021/04/25 01:27:57;;;;;;;16.83;11.73;;;;;;;;;;5061874;28;20013;-65
2021/04/25 01:30:26;;;;;;;17.30;11.67;;;;;;;;;;5035849;28;20013;-65
2021/04/25 01:32:52;;;;;;;16.53;10.93;;;;;;;;;;5058895;28;20029;-65
2021/04/25 01:35:21;;;;;;;20.93;11.80;;;;;;;;;;5051738;28;20367;-65
2021/04/25 01:37:48;;;;;;;17.63;12.37;;;;;;;;;;5058217;28;20024;-65
2021/04/25 01:40:14;;;;;;;18.57;12.17;;;;;;;;;;5047760;28;20047;-66
2021/04/25 01:42:39;;;;;;;17.87;12.23;;;;;;;;;;5057327;28;20028;-65
2021/04/25 01:45:05;;;;;;;15.30;10.83;;;;;;;;;;5058467;28;20484;-65
2021/04/25 01:47:30;;;;;;;18.07;12.13;;;;;;;;;;5066373;28;20024;-65
2021/04/25 01:49:55;;;;;;;18.47;12.07;;;;;;;;;;5049609;28;20235;-65
2021/04/25 01:52:20;;;;;;;20.60;12.80;;;;;;;;;;5058717;28;20024;-65
2021/04/25 01:54:45;;;;;;;17.57;12.47;;;;;;;;;;5056645;28;20472;-65
2021/04/25 01:57:11;;;;;;;19.57;13.10;;;;;;;;;;5054573;28;20020;-64
2021/04/25 01:59:36;;;;;;;20.80;12.63;;;;;;;;;;5060441;28;20058;-66
2021/04/25 02:02:01;;;;;;;16.53;11.63;;;;;;;;;;5070853;28;20025;-65
2021/04/25 02:04:27;;;;;;;21.40;13.03;;;;;;;;;;5047658;28;20024;-65
2021/04/25 02:06:52;;;;;;;18.03;13.07;;;;;;;;;;5073737;28;20044;-65
2021/04/25 02:09:17;;;;;;;18.17;12.80;;;;;;;;;;5059186;28;20301;-66
2021/04/25 02:11:42;;;;;;;18.67;11.63;;;;;;;;;;5075083;28;20023;-65
2021/04/25 02:14:08;;;;;;;18.40;12.10;;;;;;;;;;5063313;28;20565;-65
2021/04/25 02:16:33;;;;;;;17.83;12.00;;;;;;;;;;5053179;28;20076;-65
2021/04/25 02:18:59;;;;;;;16.77;12.20;;;;;;;;;;5052036;28;20549;-66
2021/04/25 02:21:24;;;;;;;17.93;12.57;;;;;;;;;;5042144;28;20026;-66
2021/04/25 02:23:50;;;;;;;17.80;12.07;;;;;;;;;;5049990;28;20048;-65
2021/04/25 02:26:15;;;;;;;17.37;11.07;;;;;;;;;;5064415;28;20460;-66
2021/04/25 02:28:40;;;;;;;20.17;11.70;;;;;;;;;;5063645;28;20050;-66
2021/04/25 02:31:06;;;;;;;17.87;12.27;;;;;;;;;;5072333;28;20024;-65
2021/04/25 02:33:31;;;;;;;18.37;12.27;;;;;;;;;;5072130;28;20024;-65
2021/04/25 02:35:57;;;;;;;16.27;12.13;;;;;;;;;;5065780;28;20025;-65
2021/04/25 02:38:22;;;;;;;16.23;12.57;;;;;;;;;;5055500;28;20111;-63
2021/04/25 02:40:47;;;;;;;18.87;12.27;;;;;;;;;;5054996;28;20017;-64
2021/04/25 02:43:12;;;;;;;17.30;11.50;;;;;;;;;;5054093;28;20016;-66
2021/04/25 02:45:38;;;;;;;17.07;10.83;;;;;;;;;;5061886;28;20093;-66
2021/04/25 02:48:04;;;;;;;15.70;10.60;;;;;;;;;;5053760;28;20021;-65
2021/04/25 02:50:31;;;;;;;14.57;10.87;;;;;;;;;;5064439;28;20017;-65
2021/04/25 02:52:56;;;;;;;17.17;10.97;;;;;;;;;;5067442;28;20045;-66
2021/04/25 02:55:21;;;;;;;16.80;10.20;;;;;;;;;;5056158;28;20047;-65
2021/04/25 02:57:47;;;;;;;16.00;10.60;;;;;;;;;;5071776;28;20067;-64
2021/04/25 03:00:16;;;;;;;15.57;11.50;;;;;;;;;;5049361;28;20498;-62
2021/04/25 03:02:41;;;;;;;13.07;9.10;;;;;;;;;;5066211;28;20494;-65
2021/04/25 03:05:07;;;;;;;14.23;9.43;;;;;;;;;;5074173;28;20020;-65
2021/04/25 03:07:32;;;;;;;12.63;9.30;;;;;;;;;;5071463;28;20024;-65
2021/04/25 03:09:58;;;;;;;12.20;9.33;;;;;;;;;;5053187;28;20017;-66
2021/04/25 03:12:23;;;;;;;14.40;9.73;;;;;;;;;;5053030;28;20028;-65
2021/04/25 03:14:48;;;;;;;11.43;8.53;;;;;;;;;;5053150;28;20082;-64
2021/04/25 03:17:13;;;;;;;13.10;8.87;;;;;;;;;;5060161;28;20040;-62
2021/04/25 03:19:38;;;;;;;12.43;9.00;;;;;;;;;;5050811;28;20028;-64
2021/04/25 03:22:04;;;;;;;13.70;8.33;;;;;;;;;;5053343;28;20154;-64
2021/04/25 03:24:29;;;;;;;16.03;9.53;;;;;;;;;;5069909;28;20035;-65
2021/04/25 03:26:55;;;;;;;14.20;9.90;;;;;;;;;;5071015;28;20463;-64
2021/04/25 03:29:20;;;;;;;15.80;9.47;;;;;;;;;;5059528;28;20063;-64
2021/04/25 03:31:45;;;;;;;12.83;8.53;;;;;;;;;;5056811;28;20017;-65
2021/04/25 03:34:10;;;;;;;15.43;8.83;;;;;;;;;;5060158;28;20067;-65
2021/04/25 03:36:36;;;;;;;13.70;8.43;;;;;;;;;;5055557;28;20153;-64
2021/04/25 03:39:01;;;;;;;13.97;9.40;;;;;;;;;;5060211;28;20022;-64
2021/04/25 03:41:26;;;;;;;14.07;8.80;;;;;;;;;;5053326;28;20048;-65
2021/04/25 03:43:52;;;;;;;13.47;8.60;;;;;;;;;;5060857;28;20111;-64
2021/04/25 03:46:17;;;;;;;15.23;9.57;;;;;;;;;;5063880;28;20037;-64
2021/04/25 03:48:42;;;;;;;13.37;9.33;;;;;;;;;;5050083;28;20021;-65
2021/04/25 03:51:08;;;;;;;13.40;10.07;;;;;;;;;;5060863;28;20024;-64
2021/04/25 03:53:33;;;;;;;11.53;8.83;;;;;;;;;;5053947;28;20025;-65
2021/04/25 03:55:58;;;;;;;11.97;8.40;;;;;;;;;;5061967;28;20035;-64
2021/04/25 03:58:23;;;;;;;13.60;9.10;;;;;;;;;;5056737;28;20048;-65
2021/04/25 04:00:49;;;;;;;13.10;9.47;;;;;;;;;;5055220;28;20032;-63
2021/04/25 04:03:14;;;;;;;14.57;9.60;;;;;;;;;;5054211;28;20026;-65
2021/04/25 04:05:39;;;;;;;12.40;8.43;;;;;;;;;;5043309;28;20025;-65
2021/04/25 04:08:04;;;;;;;12.37;8.63;;;;;;;;;;5069590;28;20020;-65
2021/04/25 04:10:30;;;;;;;14.20;9.20;;;;;;;;;;5047347;28;20148;-64
2021/04/25 04:12:55;;;;;;;12.87;9.67;;;;;;;;;;5050637;28;20372;-65
2021/04/25 04:15:20;;;;;;;15.37;9.40;;;;;;;;;;5051751;28;20070;-63
2021/04/25 04:17:45;;;;;;;13.93;9.30;;;;;;;;;;5060873;28;20044;-64
2021/04/25 04:20:11;;;;;;;11.43;8.70;;;;;;;;;;5047870;28;20032;-64
2021/04/25 04:22:37;;;;;;;12.47;8.03;;;;;;;;;;5052058;28;20035;-64
2021/04/25 04:25:02;;;;;;;11.27;7.57;;;;;;;;;;5062447;28;20017;-64
2021/04/25 04:27:28;;;;;;;13.13;7.67;;;;;;;;;;5062853;28;20107;-64
2021/04/25 04:29:53;;;;;;;13.77;7.87;;;;;;;;;;5054841;28;20013;-65
2021/04/25 04:32:18;;;;;;;12.20;7.80;;;;;;;;;;5052702;28;20021;-65
2021/04/25 04:34:44;;;;;;;10.43;7.67;;;;;;;;;;5062809;28;20016;-65
2021/04/25 04:37:09;;;;;;;13.13;7.77;;;;;;;;;;5070417;28;20126;-65
2021/04/25 04:39:35;;;;;;;13.30;7.43;;;;;;;;;;5052335;28;20059;-64
2021/04/25 04:42:00;;;;;;;10.43;7.70;;;;;;;;;;5056100;28;20090;-65
2021/04/25 04:44:25;;;;;;;9.73;7.67;;;;;;;;;;5052988;28;20028;-65
2021/04/25 04:46:50;;;;;;;9.40;6.13;;;;;;;;;;5058699;28;20075;-64
2021/04/25 04:49:15;;;;;;;10.57;7.03;;;;;;;;;;5048489;28;20020;-64
2021/04/25 04:51:41;;;;;;;9.67;6.10;;;;;;;;;;5058663;28;20031;-65
2021/04/25 04:54:07;;;;;;;10.83;6.37;;;;;;;;;;5052276;28;20067;-65
2021/04/25 04:56:32;;;;;;;10.30;6.30;;;;;;;;;;5069141;28;20120;-64
2021/04/25 04:58:57;;;;;;;12.80;6.87;;;;;;;;;;5054541;28;20024;-64
2021/04/25 05:01:22;;;;;;;10.27;6.20;;;;;;;;;;5059343;28;20044;-64
2021/04/25 05:03:48;;;;;;;9.83;5.50;;;;;;;;;;5068763;28;20085;-64
2021/04/25 05:06:13;;;;;;;9.20;6.97;;;;;;;;;;5070860;28;20017;-65
2021/04/25 05:08:38;;;;;;;9.73;6.27;;;;;;;;;;5043919;28;21504;-65
2021/04/25 05:11:03;;;;;;;9.60;6.33;;;;;;;;;;5056513;28;20024;-65
2021/04/25 05:13:29;;;;;;;9.33;6.57;;;;;;;;;;5050838;28;20017;-64
2021/04/25 05:15:54;;;;;;;11.27;7.27;;;;;;;;;;5068097;28;20020;-64
2021/04/25 05:18:19;;;;;;;9.43;6.03;;;;;;;;;;5055013;28;20048;-64
2021/04/25 05:20:45;;;;;;;10.70;6.47;;;;;;;;;;5059474;28;20024;-66
2021/04/25 05:23:10;;;;;;;8.47;6.10;;;;;;;;;;5071738;28;20021;-66
2021/04/25 05:25:35;;;;;;;11.20;7.20;;;;;;;;;;5058327;28;20016;-63
2021/04/25 05:28:01;;;;;;;12.27;6.73;;;;;;;;;;5053752;28;20023;-63
2021/04/25 05:30:26;;;;;;;10.53;6.80;;;;;;;;;;5071375;28;20056;-64
2021/04/25 05:32:51;;;;;;;12.07;7.33;;;;;;;;;;5063901;28;20528;-64
2021/04/25 05:35:16;;;;;;;11.73;7.07;;;;;;;;;;5052038;28;20017;-65
2021/04/25 05:37:42;;;;;;;12.03;6.53;;;;;;;;;;5060219;28;20025;-65
2021/04/25 05:40:09;;;;;;;10.60;7.00;;;;;;;;;;5061503;28;20383;-65
2021/04/25 05:42:34;;;;;;;9.27;6.00;;;;;;;;;;5049958;28;20029;-64
2021/04/25 05:45:00;;;;;;;11.17;6.97;;;;;;;;;;5054629;28;20483;-64
2021/04/25 05:47:25;;;;;;;9.40;7.17;;;;;;;;;;5053128;28;20524;-65
2021/04/25 05:49:50;;;;;;;10.77;6.63;;;;;;;;;;5065299;28;20043;-65
2021/04/25 05:52:15;;;;;;;11.30;7.83;;;;;;;;;;5071225;28;20024;-65
2021/04/25 05:54:41;;;;;;;13.57;7.43;;;;;;;;;;5065996;28;20380;-65
2021/04/25 05:57:08;;;;;;;15.60;7.20;;;;;;;;;;5075253;28;20475;-65
2021/04/25 05:59:34;;;;;;;11.90;6.83;;;;;;;;;;5065884;28;20025;-65
2021/04/25 06:01:59;;;;;;;10.97;6.50;;;;;;;;;;5061817;28;20023;-65
2021/04/25 06:04:24;;;;;;;9.70;6.60;;;;;;;;;;5045682;28;20384;-64
2021/04/25 06:06:49;;;;;;;9.50;7.33;;;;;;;;;;5044181;28;20409;-64
2021/04/25 06:09:15;;;;;;;11.03;7.70;;;;;;;;;;5057782;28;20379;-65
2021/04/25 06:11:40;;;;;;;14.57;7.93;;;;;;;;;;5045146;28;20464;-65
2021/04/25 06:14:05;;;;;;;11.00;7.23;;;;;;;;;;5050381;28;20009;-64
2021/04/25 06:16:31;;;;;;;12.53;7.30;;;;;;;;;;5062295;28;20131;-65
2021/04/25 06:18:56;;;;;;;12.23;7.57;;;;;;;;;;5061152;28;20028;-64
2021/04/25 06:21:21;;;;;;;14.10;7.03;;;;;;;;;;5054275;28;21376;-64
2021/04/25 06:23:47;;;;;;;11.43;7.60;;;;;;;;;;5049336;28;20035;-65
2021/04/25 06:26:12;;;;;;;9.13;7.10;;;;;;;;;;5053628;28;20025;-65
2021/04/25 06:28:37;;;;;;;13.47;8.60;;;;;;;;;;5045927;28;20025;-65
2021/04/25 06:31:02;;;;;;;11.60;8.20;;;;;;;;;;5064854;28;20013;-64
2021/04/25 06:33:28;;;;;;;10.67;7.80;;;;;;;;;;5053063;28;20104;-65
2021/04/25 06:35:53;;;;;;;11.50;8.30;;;;;;;;;;5074577;28;20008;-65
2021/04/25 06:38:18;;;;;;;10.97;8.27;;;;;;;;;;5055545;28;20013;-65
2021/04/25 06:40:43;;;;;;;11.97;8.43;;;;;;;;;;5059662;28;20035;-65
2021/04/25 06:43:09;;;;;;;10.00;8.03;;;;;;;;;;5071909;28;20035;-65
2021/04/25 06:45:34;;;;;;;12.30;8.07;;;;;;;;;;5059198;28;20024;-65
2021/04/25 06:47:59;;;;;;;11.20;7.40;;;;;;;;;;5042350;28;20021;-64
2021/04/25 06:50:24;;;;;;;8.23;6.87;;;;;;;;;;5041901;28;20345;-65
2021/04/25 06:52:50;;;;;;;11.97;7.80;;;;;;;;;;5049203;28;20029;-64
2021/04/25 06:55:17;;;;;;;10.27;7.80;;;;;;;;;;5040655;28;20067;-65
2021/04/25 06:57:42;;;;;;;10.03;8.03;;;;;;;;;;5058496;28;20025;-64
2021/04/25 07:00:08;;;;;;;13.83;8.33;;;;;;;;;;5038682;28;20036;-65
2021/04/25 07:02:34;;;;;;;11.60;7.60;;;;;;;;;;5053898;28;20021;-64
2021/04/25 07:04:59;;;;;;;12.10;7.53;;;;;;;;;;5056116;28;20024;-66
2021/04/25 07:07:24;;;;;;;11.52;7.60;;;;;;;;;;5047807;28;20031;-66
2021/04/25 07:09:49;;;;;;;8.93;6.82;;;;;;;;;;5037758;28;20020;-66
2021/04/25 07:12:14;;;;;;;9.25;6.60;;;;;;;;;;5065754;28;20032;-67
2021/04/25 07:14:40;;;;;;;8.48;5.45;;;;;;;;;;5065550;28;20020;-66
2021/04/25 07:17:05;;;;;;;9.55;6.50;;;;;;;;;;5064624;28;20037;-66
2021/04/25 07:19:31;;;;;;;10.18;6.38;;;;;;;;;;5047603;28;20049;-67
2021/04/25 07:21:57;;;;;;;9.60;6.78;;;;;;;;;;5044381;28;20033;-67
2021/04/25 07:24:22;;;;;;;8.05;6.07;;;;;;;;;;5039179;28;20087;-66
2021/04/25 07:26:47;;;;;;;9.10;6.03;;;;;;;;;;5057502;28;20025;-64
2021/04/25 07:29:14;;;;;;;10.30;6.07;;;;;;;;;;5052659;28;20028;-65
2021/04/25 07:31:39;;;;;;;10.63;6.60;;;;;;;;;;5054699;28;20058;-65
2021/04/25 07:34:04;;;;;;;9.20;6.75;;;;;;;;;;5057666;28;20048;-65
2021/04/25 07:36:30;;;;;;;8.55;7.10;;;;;;;;;;5055305;28;20116;-66
2021/04/25 07:38:55;;;;;;;10.38;6.10;;;;;;;;;;5053695;28;20309;-64
2021/04/25 07:41:20;;;;;;;10.60;6.85;;;;;;;;;;5055802;28;20301;-66
2021/04/25 07:43:45;;;;;;;9.52;6.70;;;;;;;;;;5057263;28;20013;-66
2021/04/25 07:46:11;;;;;;;8.43;5.65;;;;;;;;;;5058684;28;20029;-66
2021/04/25 07:48:36;;;;;;;8.65;6.15;;;;;;;;;;5056892;28;20021;-66
2021/04/25 07:51:02;;;;;;;8.90;6.35;;;;;;;;;;5058338;28;20017;-65
2021/04/25 07:53:28;;;;;;;11.25;5.72;;;;;;;;;;5058202;28;20447;-66
2021/04/25 07:55:53;;;;;;;9.15;5.40;;;;;;;;;;5058111;28;20101;-66
2021/04/25 07:58:18;;;;;;;6.90;5.78;;;;;;;;;;5058100;28;20083;-66
2021/04/25 08:00:44;;;;;;;7.90;4.75;;;;;;;;;;5053313;28;20464;-66
2021/04/25 08:03:09;;;;;;;9.60;5.00;;;;;;;;;;5054215;28;22156;-66
2021/04/25 08:05:35;;;;;;;3.65;2.22;;;;;;;;;;5059028;28;20369;-66
2021/04/25 08:08:01;;;;;;;8.75;4.55;;;;;;;;;;5056881;28;20020;-66
2021/04/25 08:10:26;;;;;;;6.80;4.57;;;;;;;;;;5055236;28;20036;-64
2021/04/25 08:12:52;;;;;;;10.48;4.70;;;;;;;;;;5058647;28;20020;-67
2021/04/25 08:15:17;;;;;;;9.15;4.57;;;;;;;;;;5055931;28;20439;-68
2021/04/25 08:17:43;;;;;;;4.65;2.88;;;;;;;;;;5059522;28;20080;-67
2021/04/25 08:20:09;;;;;;;7.38;5.25;;;;;;;;;;5053405;28;20028;-67
2021/04/25 08:22:34;;;;;;;7.53;4.20;;;;;;;;;;5058098;28;20020;-67
2021/04/25 08:25:00;;;;;;;7.40;4.78;;;;;;;;;;5056289;28;20094;-67
2021/04/25 08:27:25;;;;;;;8.50;5.47;;;;;;;;;;5058661;28;20417;-68
2021/04/25 08:29:51;;;;;;;8.68;5.28;;;;;;;;;;5051874;28;20051;-68
2021/04/25 08:32:16;;;;;;;9.25;4.20;;;;;;;;;;5055776;28;20025;-68
2021/04/25 08:34:41;;;;;;;8.93;5.25;;;;;;;;;;5052382;28;20033;-67
2021/04/25 08:37:06;;;;;;;11.02;6.10;;;;;;;;;;5053619;28;20024;-67
2021/04/25 08:39:32;;;;;;;7.13;5.30;;;;;;;;;;5052142;28;20058;-68
2021/04/25 08:41:57;;;;;;;7.47;5.22;;;;;;;;;;5052972;28;20409;-68
2021/04/25 08:44:23;;;;;;;6.93;4.15;;;;;;;;;;5052929;28;20448;-67
2021/04/25 08:46:49;;;;;;;10.68;6.20;;;;;;;;;;5050356;28;20024;-66
2021/04/25 08:49:18;;;;;;;7.85;5.70;;;;;;;;;;5052938;28;20309;-68
2021/04/25 08:51:44;;;;;;;10.82;6.38;;;;;;;;;;5051037;28;20074;-66
2021/04/25 08:54:09;;;;;;;8.45;5.38;;;;;;;;;;5066439;28;20028;-68
2021/04/25 08:56:34;;;;;;;6.97;5.18;;;;;;;;;;5065410;28;20031;-68
2021/04/25 08:59:00;;;;;;;9.15;5.03;;;;;;;;;;5053473;28;20515;-67
2021/04/25 09:01:26;;;;;;;8.95;4.80;;;;;;;;;;5058965;28;20028;-68
2021/04/25 09:03:51;;;;;;;6.30;4.40;;;;;;;;;;5046686;28;20028;-67
2021/04/25 09:06:16;;;;;;;7.15;4.20;;;;;;;;;;5069504;28;20024;-65
2021/04/25 09:08:51;;;;;;;3.15;2.42;;;;;;;;;;5048767;28;20498;-67
2021/04/25 09:11:23;;;;;;;6.95;4.75;;;;;;;;;;5067467;28;20436;-68
2021/04/25 09:14:08;;;;;;;10.50;4.70;;;;;;;;;;5054653;28;20016;-66
2021/04/25 09:16:34;;;;;;;6.43;4.57;;;;;;;;;;5036008;28;20057;-68
2021/04/25 09:18:59;;;;;;;9.00;4.82;;;;;;;;;;5037496;28;20024;-68
2021/04/25 09:21:26;;;;;;;7.35;4.47;;;;;;;;;;5051645;28;20070;-66
2021/04/25 09:23:51;;;;;;;7.28;4.50;;;;;;;;;;5050041;28;20028;-68
2021/04/25 09:26:16;;;;;;;5.75;4.22;;;;;;;;;;5056126;28;20095;-68
2021/04/25 09:28:58;;;;;;;9.20;4.15;;;;;;;;;;5052920;28;20319;-67
2021/04/25 09:31:23;;;;;;;6.93;4.63;;;;;;;;;;5048697;28;20033;-67
2021/04/25 09:33:52;;;;;;;6.22;3.95;;;;;;;;;;5057780;28;20074;-68
2021/04/25 09:36:20;;;;;;;6.70;3.90;;;;;;;;;;5057361;28;20021;-67
2021/04/25 09:38:45;;;;;;;6.22;4.45;;;;;;;;;;5044090;28;20451;-68
2021/04/25 09:41:24;;;;;;;6.72;3.70;;;;;;;;;;5055346;28;20070;-67
2021/04/25 09:43:49;;;;;;;4.97;3.38;;;;;;;;;;5054137;28;20020;-67
2021/04/25 09:46:14;;;;;;;6.47;3.78;;;;;;;;;;5043382;28;20491;-69
2021/04/25 09:48:41;;;;;;;7.75;3.90;;;;;;;;;;5033808;28;20216;-68
2021/04/25 09:51:17;;;;;;;7.28;3.90;;;;;;;;;;5045071;28;20020;-68
2021/04/25 09:53:58;;;;;;;7.18;3.45;;;;;;;;;;5041902;28;20024;-68
2021/04/25 09:56:41;;;;;;;8.93;3.72;;;;;;;;;;5047555;28;20032;-69
2021/04/25 09:59:07;;;;;;;6.32;3.97;;;;;;;;;;5047518;28;20024;-69
2021/04/25 10:01:34;;;;;;;6.45;3.78;;;;;;;;;;5048833;28;20028;-69
2021/04/25 10:04:00;;;;;;;6.47;3.83;;;;;;;;;;5063783;28;20082;-68
2021/04/25 10:06:25;;;;;;;6.82;3.42;;;;;;;;;;5042327;28;20475;-69
2021/04/25 10:08:52;;;;;;;6.38;4.00;;;;;;;;;;5052119;28;20108;-68
2021/04/25 10:11:21;;;;;;;6.38;3.63;;;;;;;;;;5045894;28;20029;-68
2021/04/25 10:13:47;;;;;;;4.20;3.28;;;;;;;;;;5050835;28;20067;-69
2021/04/25 10:16:16;;;;;;;4.43;2.83;;;;;;;;;;5046403;28;20601;-64
2021/04/25 10:18:41;;;;;;;5.18;3.38;;;;;;;;;;5061950;28;20474;-66
2021/04/25 10:21:07;;;;;;;8.15;3.40;;;;;;;;;;5055775;28;20107;-68
2021/04/25 10:23:32;;;;;;;5.43;3.90;;;;;;;;;;5060161;28;20107;-68
2021/04/25 10:25:57;;;;;;;10.52;4.03;;;;;;;;;;5054614;28;20448;-65
2021/04/25 10:28:27;;;;;;;6.13;3.20;;;;;;;;;;5055039;28;20298;-67
2021/04/25 10:30:57;;;;;;;6.47;3.83;;;;;;;;;;5046087;28;20029;-70
2021/04/25 10:33:23;;;;;;;6.18;4.30;;;;;;;;;;5056130;28;20023;-67
2021/04/25 10:35:55;;;;;;;5.18;3.08;;;;;;;;;;5063511;28;20025;-68
2021/04/25 10:38:33;;;;;;;3.70;2.75;;;;;;;;;;5060559;28;20020;-67
2021/04/25 10:41:18;;;;;;;6.50;2.67;;;;;;;;;;5038992;28;20022;-68
2021/04/25 10:44:02;;;;;;;5.37;3.30;;;;;;;;;;5050521;28;20375;-66
2021/04/25 10:47:02;;;;;;;4.10;2.38;;;;;;;;;;5050347;28;20030;-64
2021/04/25 10:49:29;;;;;;;3.83;1.15;;;;;;;;;;5053656;28;20017;-64
2021/04/25 10:51:54;;;;;;;3.13;2.35;;;;;;;;;;5044173;28;20700;-64
2021/04/25 10:54:19;;;;;;;4.15;2.50;;;;;;;;;;5063143;28;20015;-64
2021/04/25 10:57:04;;;;;;;6.15;3.08;;;;;;;;;;5059146;28;20468;-64
2021/04/25 10:59:31;;;;;;;3.15;2.60;;;;;;;;;;5047472;28;21591;-65
2021/04/25 11:01:57;;;;;;;4.35;2.72;;;;;;;;;;5049624;28;20108;-64
2021/04/25 11:04:41;;;;;;;4.93;2.90;;;;;;;;;;5056709;28;20520;-65
2021/04/25 11:07:29;;;;;;;4.82;2.53;;;;;;;;;;5065509;28;20051;-64
2021/04/25 11:09:55;;;;;;;4.90;2.83;;;;;;;;;;5045969;28;20491;-63
2021/04/25 11:12:37;;;;;;;6.25;3.58;;;;;;;;;;5053590;28;20020;-65
2021/04/25 11:15:02;;;;;;;3.42;2.65;;;;;;;;;;5042843;28;20108;-65
2021/04/25 11:17:28;;;;;;;3.45;2.78;;;;;;;;;;5051834;28;20136;-68
2021/04/25 11:19:53;;;;;;;6.40;3.70;;;;;;;;;;5046607;28;20054;-67
2021/04/25 11:22:38;;;;;;;7.03;3.60;;;;;;;;;;5055020;28;20457;-65
2021/04/25 11:25:33;;;;;;;4.13;2.72;;;;;;;;;;5061473;28;20025;-67
2021/04/25 11:27:59;;;;;;;4.95;3.20;;;;;;;;;;5035729;28;20037;-67
2021/04/25 11:30:34;;;;;;;5.85;3.90;;;;;;;;;;5048439;28;20508;-66
2021/04/25 11:33:35;;;;;;;5.00;4.57;;;;;;;;;;5064010;28;20475;-65
2021/04/25 11:36:19;;;;;;;5.60;4.07;;;;;;;;;;5031230;28;20033;-66
2021/04/25 11:38:47;;;;;;;9.18;5.85;;;;;;;;;;5029813;28;20129;-67
2021/04/25 11:41:12;;;;;;;5.65;3.45;;;;;;;;;;5017167;28;20036;-66
2021/04/25 11:43:41;;;;;;;7.68;3.95;;;;;;;;;;5036097;28;20029;-66
2021/04/25 11:46:06;;;;;;;6.32;4.70;;;;;;;;;;5028443;28;20025;-66
2021/04/25 11:48:31;;;;;;;8.50;5.55;;;;;;;;;;5026114;28;20029;-66
2021/04/25 11:50:57;;;;;;;5.82;4.30;;;;;;;;;;5026922;28;20029;-65
2021/04/25 11:53:31;;;;;;;5.18;4.07;;;;;;;;;;5026214;28;20017;-66
2021/04/25 11:55:56;;;;;;;7.57;4.13;;;;;;;;;;5028513;28;20113;-66
2021/04/25 11:58:22;;;;;;;6.80;3.95;;;;;;;;;;5028559;28;20111;-65
2021/04/25 12:00:47;;;;;;;4.82;3.92;;;;;;;;;;5022121;28;20020;-66
2021/04/25 12:03:13;;;;;;;5.80;4.10;;;;;;;;;;5013655;28;20480;-65
2021/04/25 12:05:38;;;;;;;4.80;3.35;;;;;;;;;;5027766;28;20068;-66
2021/04/25 12:08:08;;;;;;;4.80;3.08;;;;;;;;;;5029038;28;20056;-66
2021/04/25 12:10:50;;;;;;;5.07;2.67;;;;;;;;;;5031839;28;20088;-65
2021/04/25 12:13:19;;;;;;;6.05;3.95;;;;;;;;;;5038378;28;20021;-66
2021/04/25 12:15:44;;;;;;;5.85;2.95;;;;;;;;;;5049254;28;20017;-64
2021/04/25 12:18:10;;;;;;;3.95;2.80;;;;;;;;;;5044921;28;20129;-65
2021/04/25 12:20:41;;;;;;;3.95;1.80;;;;;;;;;;5045536;28;20028;-66
2021/04/25 12:23:07;;;;;;;4.97;2.88;;;;;;;;;;5034874;28;20025;-65
2021/04/25 12:25:33;;;;;;;4.78;2.35;;;;;;;;;;5051847;28;20017;-65
2021/04/25 12:27:58;;;;;;;4.93;2.97;;;;;;;;;;5048261;28;20396;-66
2021/04/25 12:30:25;;;;;;;6.00;3.80;;;;;;;;;;5043881;28;20016;-66
2021/04/25 12:33:08;;;;;;;4.82;3.08;;;;;;;;;;5050001;28;20025;-66
2021/04/25 12:35:34;;;;;;;6.35;2.83;;;;;;;;;;5049486;28;20012;-67
2021/04/25 12:37:59;;;;;;;5.53;3.65;;;;;;;;;;5049036;28;20017;-65
2021/04/25 12:40:26;;;;;;;4.63;3.03;;;;;;;;;;5047991;28;20027;-65
2021/04/25 12:43:27;;;;;;;5.15;2.50;;;;;;;;;;5049359;28;20527;-63
2021/04/25 12:45:52;;;;;;;5.45;3.53;;;;;;;;;;5009021;28;20473;-65
2021/04/25 12:48:44;;;;;;;5.25;3.35;;;;;;;;;;4992956;28;20080;-67
2021/04/25 12:51:11;;;;;;;4.47;2.67;;;;;;;;;;4996577;28;20033;-66
2021/04/25 12:53:43;;;;;;;5.30;2.47;;;;;;;;;;5007099;28;20085;-66
2021/04/25 12:56:26;;;;;;;3.65;3.03;;;;;;;;;;4993443;28;20018;-66
2021/04/25 12:59:03;;;;;;;5.45;3.13;;;;;;;;;;5004201;28;20026;-65
2021/04/25 13:01:29;;;;;;;6.40;3.72;;;;;;;;;;5004580;28;20177;-67
2021/04/25 13:03:54;;;;;;;4.53;3.03;;;;;;;;;;5004054;28;20101;-66
2021/04/25 13:06:37;;;;;;;6.90;3.00;;;;;;;;;;5022519;28;20113;-66
2021/04/25 13:09:12;;;;;;;5.30;2.78;;;;;;;;;;5004120;28;20113;-67
2021/04/25 13:11:38;;;;;;;3.92;2.90;;;;;;;;;;4992523;28;20052;-66
2021/04/25 13:14:04;;;;;;;3.60;2.50;;;;;;;;;;4991574;28;20457;-67
2021/04/25 13:16:29;;;;;;;5.60;2.90;;;;;;;;;;5008039;28;20046;-66
2021/04/25 13:18:54;;;;;;;4.00;2.47;;;;;;;;;;4994479;28;20413;-67
2021/04/25 13:21:20;;;;;;;3.85;2.00;;;;;;;;;;5038105;28;20496;-66
2021/04/25 13:23:45;;;;;;;4.32;2.15;;;;;;;;;;5035044;28;20028;-66
2021/04/25 13:26:10;;;;;;;6.25;3.08;;;;;;;;;;5041014;28;20025;-68
2021/04/25 13:28:35;;;;;;;4.75;2.47;;;;;;;;;;5033273;28;20465;-67
2021/04/25 13:31:02;;;;;;;7.38;3.10;;;;;;;;;;5031785;28;20060;-68
2021/04/25 13:33:28;;;;;;;5.97;3.03;;;;;;;;;;5032400;28;20013;-68
2021/04/25 13:35:54;;;;;;;5.18;3.15;;;;;;;;;;5050151;28;20075;-66
2021/04/25 13:38:20;;;;;;;4.60;1.90;;;;;;;;;;5044613;28;20053;-64
2021/04/25 13:40:47;;;;;;;3.88;2.50;;;;;;;;;;5043474;28;20048;-68
2021/04/25 13:43:12;;;;;;;3.95;2.03;;;;;;;;;;5038438;28;20021;-68
2021/04/25 13:45:37;;;;;;;3.72;2.35;;;;;;;;;;5043072;28;20045;-68
2021/04/25 13:48:03;;;;;;;5.43;2.22;;;;;;;;;;5043878;28;20418;-69
2021/04/25 13:50:28;;;;;;;4.50;2.80;;;;;;;;;;5047586;28;20017;-68
2021/04/25 13:52:54;;;;;;;4.60;2.55;;;;;;;;;;5050614;28;20017;-68
2021/04/25 13:55:19;;;;;;;3.03;2.03;;;;;;;;;;5044363;28;20013;-67
2021/04/25 13:57:44;;;;;;;3.58;2.45;;;;;;;;;;5054222;28;20084;-68
2021/04/25 14:00:12;;;;;;;6.30;2.72;;;;;;;;;;5045529;28;20039;-66
2021/04/25 14:02:38;;;;;;;5.55;2.60;;;;;;;;;;5052937;28;20119;-67
2021/04/25 14:05:03;;;;;;;4.30;2.70;;;;;;;;;;5053556;28;20470;-66
2021/04/25 14:07:29;;;;;;;5.10;2.60;;;;;;;;;;5052380;28;20024;-67
2021/04/25 14:09:54;;;;;;;3.33;2.63;;;;;;;;;;5049488;28;20021;-67
2021/04/25 14:12:19;;;;;;;4.50;2.53;;;;;;;;;;5044538;28;20014;-68
2021/04/25 14:14:44;;;;;;;3.15;2.20;;;;;;;;;;5049548;28;20021;-67
2021/04/25 14:17:10;;;;;;;1.88;1.02;;;;;;;;;;5047791;28;20376;-67
2021/04/25 14:19:35;;;;;;;5.70;2.58;;;;;;;;;;5037225;28;20463;-68
2021/04/25 14:22:00;;;;;;;4.15;2.33;;;;;;;;;;5044239;28;20030;-68
2021/04/25 14:24:25;;;;;;;5.95;2.58;;;;;;;;;;5034883;28;20032;-66
2021/04/25 14:26:51;;;;;;;2.72;1.70;;;;;;;;;;5050860;28;20017;-67
2021/04/25 14:29:17;;;;;;;3.03;1.50;;;;;;;;;;5048552;28;20017;-68
2021/04/25 14:31:42;;;;;;;2.88;1.80;;;;;;;;;;5050079;28;20025;-67